sensor_id;sensor_type;location;lat;lon;timestamp;P1;durP1;ratioP1;P2;durP2;ratioP2
75191;SDS011;63771;52.580;9.734;2023-07-29T00:01:35;6.22;;;5.63;;
75191;SDS011;63771;52.580;9.734;2023-07-29T00:04:00;6.82;;;6.15;;
75191;SDS011;63771;52.580;9.734;2023-07-29T00:06:26;6.22;;;5.63;;
75191;SDS011;63771;52.580;9.734;2023-07-29T00:08:52;7.72;;;5.95;;
75191;SDS011;63771;52.580;9.734;2023-07-29T00:11:17;6.47;;;5.97;;
75191;SDS011;63771;52.580;9.734;2023-07-29T00:13:42;7.60;;;6.00;;
75191;SDS011;63771;52.580;9.734;2023-07-29T00:16:08;7.57;;;5.13;;
75191;SDS011;63771;52.580;9.734;2023-07-29T00:18:33;7.53;;;5.20;;
75191;SDS011;63771;52.580;9.734;2023-07-29T00:20:59;5.68;;;4.78;;
75191;SDS011;63771;52.580;9.734;2023-07-29T00:23:24;4.70;;;4.20;;
75191;SDS011;63771;52.580;9.734;2023-07-29T00:25:49;5.10;;;4.53;;
75191;SDS011;63771;52.580;9.734;2023-07-29T00:28:15;5.63;;;4.30;;
75191;SDS011;63771;52.580;9.734;2023-07-29T00:30:40;5.85;;;4.05;;
75191;SDS011;63771;52.580;9.734;2023-07-29T00:33:05;4.90;;;4.07;;
75191;SDS011;63771;52.580;9.734;2023-07-29T00:35:31;3.70;;;3.40;;
75191;SDS011;63771;52.580;9.734;2023-07-29T00:37:56;4.07;;;3.70;;
75191;SDS011;63771;52.580;9.734;2023-07-29T00:40:22;4.43;;;3.47;;
75191;SDS011;63771;52.580;9.734;2023-07-29T00:42:48;3.70;;;3.40;;
75191;SDS011;63771;52.580;9.734;2023-07-29T00:45:14;3.97;;;3.67;;
75191;SDS011;63771;52.580;9.734;2023-07-29T00:47:40;3.15;;;2.95;;
75191;SDS011;63771;52.580;9.734;2023-07-29T00:50:08;3.55;;;3.25;;
75191;SDS011;63771;52.580;9.734;2023-07-29T00:52:34;4.00;;;3.42;;
75191;SDS011;63771;52.580;9.734;2023-07-29T00:54:59;3.38;;;3.15;;
75191;SDS011;63771;52.580;9.734;2023-07-29T00:57:25;4.90;;;3.13;;
75191;SDS011;63771;52.580;9.734;2023-07-29T00:59:51;3.05;;;2.83;;
75191;SDS011;63771;52.580;9.734;2023-07-29T01:02:17;3.00;;;2.80;;
75191;SDS011;63771;52.580;9.734;2023-07-29T01:04:42;3.05;;;2.80;;
75191;SDS011;63771;52.580;9.734;2023-07-29T01:09:50;2.80;;;2.60;;
75191;SDS011;63771;52.580;9.734;2023-07-29T01:12:44;2.75;;;2.58;;
75191;SDS011;63771;52.580;9.734;2023-07-29T01:17:52;3.22;;;2.97;;
75191;SDS011;63771;52.580;9.734;2023-07-29T01:20:20;4.20;;;2.50;;
75191;SDS011;63771;52.580;9.734;2023-07-29T01:22:48;2.83;;;2.60;;
75191;SDS011;63771;52.580;9.734;2023-07-29T01:25:14;2.90;;;2.65;;
75191;SDS011;63771;52.580;9.734;2023-07-29T01:27:41;3.13;;;2.63;;
75191;SDS011;63771;52.580;9.734;2023-07-29T01:30:10;3.28;;;2.97;;
75191;SDS011;63771;52.580;9.734;2023-07-29T01:32:42;3.40;;;3.15;;
75191;SDS011;63771;52.580;9.734;2023-07-29T01:38:02;4.15;;;2.75;;
75191;SDS011;63771;52.580;9.734;2023-07-29T01:40:31;2.72;;;2.63;;
75191;SDS011;63771;52.580;9.734;2023-07-29T01:42:58;2.78;;;2.63;;
75191;SDS011;63771;52.580;9.734;2023-07-29T01:45:24;3.08;;;2.88;;
75191;SDS011;63771;52.580;9.734;2023-07-29T01:47:53;3.55;;;3.33;;
75191;SDS011;63771;52.580;9.734;2023-07-29T01:50:18;2.38;;;2.28;;
75191;SDS011;63771;52.580;9.734;2023-07-29T01:52:43;3.55;;;2.63;;
75191;SDS011;63771;52.580;9.734;2023-07-29T01:55:09;2.57;;;2.37;;
75191;SDS011;63771;52.580;9.734;2023-07-29T01:57:34;2.97;;;2.60;;
75191;SDS011;63771;52.580;9.734;2023-07-29T01:59:59;2.50;;;2.30;;
75191;SDS011;63771;52.580;9.734;2023-07-29T02:02:25;2.25;;;2.15;;
75191;SDS011;63771;52.580;9.734;2023-07-29T02:04:50;3.42;;;2.75;;
75191;SDS011;63771;52.580;9.734;2023-07-29T02:07:17;2.30;;;2.20;;
75191;SDS011;63771;52.580;9.734;2023-07-29T02:09:44;2.47;;;2.38;;
75191;SDS011;63771;52.580;9.734;2023-07-29T02:12:09;2.50;;;2.40;;
75191;SDS011;63771;52.580;9.734;2023-07-29T02:14:34;2.70;;;2.50;;
75191;SDS011;63771;52.580;9.734;2023-07-29T02:17:00;2.87;;;2.73;;
75191;SDS011;63771;52.580;9.734;2023-07-29T02:19:25;2.97;;;2.47;;
75191;SDS011;63771;52.580;9.734;2023-07-29T02:21:50;2.85;;;2.65;;
75191;SDS011;63771;52.580;9.734;2023-07-29T02:24:16;2.63;;;2.42;;
75191;SDS011;63771;52.580;9.734;2023-07-29T02:26:41;2.63;;;2.43;;
75191;SDS011;63771;52.580;9.734;2023-07-29T02:29:06;3.07;;;2.73;;
75191;SDS011;63771;52.580;9.734;2023-07-29T02:31:32;7.30;;;2.60;;
75191;SDS011;63771;52.580;9.734;2023-07-29T02:33:57;2.88;;;2.60;;
75191;SDS011;63771;52.580;9.734;2023-07-29T02:36:23;2.50;;;2.40;;
75191;SDS011;63771;52.580;9.734;2023-07-29T02:38:48;2.63;;;2.53;;
75191;SDS011;63771;52.580;9.734;2023-07-29T02:41:13;2.43;;;2.33;;
75191;SDS011;63771;52.580;9.734;2023-07-29T02:43:41;2.85;;;2.42;;
75191;SDS011;63771;52.580;9.734;2023-07-29T02:46:07;3.35;;;3.15;;
75191;SDS011;63771;52.580;9.734;2023-07-29T02:48:32;2.97;;;2.33;;
75191;SDS011;63771;52.580;9.734;2023-07-29T02:50:58;2.50;;;2.30;;
75191;SDS011;63771;52.580;9.734;2023-07-29T02:53:23;2.63;;;2.43;;
75191;SDS011;63771;52.580;9.734;2023-07-29T02:55:50;2.20;;;2.10;;
75191;SDS011;63771;52.580;9.734;2023-07-29T02:58:15;2.65;;;2.45;;
75191;SDS011;63771;52.580;9.734;2023-07-29T03:00:41;3.27;;;3.00;;
75191;SDS011;63771;52.580;9.734;2023-07-29T03:03:09;2.22;;;2.13;;
75191;SDS011;63771;52.580;9.734;2023-07-29T03:05:34;2.27;;;2.17;;
75191;SDS011;63771;52.580;9.734;2023-07-29T03:07:59;2.53;;;2.25;;
75191;SDS011;63771;52.580;9.734;2023-07-29T03:10:25;2.20;;;2.10;;
75191;SDS011;63771;52.580;9.734;2023-07-29T03:12:50;2.33;;;2.22;;
75191;SDS011;63771;52.580;9.734;2023-07-29T03:15:16;2.90;;;2.63;;
75191;SDS011;63771;52.580;9.734;2023-07-29T03:17:41;2.33;;;2.20;;
75191;SDS011;63771;52.580;9.734;2023-07-29T03:20:06;2.40;;;2.30;;
75191;SDS011;63771;52.580;9.734;2023-07-29T03:22:32;2.80;;;2.60;;
75191;SDS011;63771;52.580;9.734;2023-07-29T03:24:58;3.50;;;2.47;;
75191;SDS011;63771;52.580;9.734;2023-07-29T03:27:23;2.40;;;2.30;;
75191;SDS011;63771;52.580;9.734;2023-07-29T03:29:48;2.90;;;2.33;;
75191;SDS011;63771;52.580;9.734;2023-07-29T03:32:13;4.50;;;2.30;;
75191;SDS011;63771;52.580;9.734;2023-07-29T03:34:39;2.97;;;2.23;;
75191;SDS011;63771;52.580;9.734;2023-07-29T03:37:05;2.17;;;2.08;;
75191;SDS011;63771;52.580;9.734;2023-07-29T03:39:31;3.17;;;2.05;;
75191;SDS011;63771;52.580;9.734;2023-07-29T03:41:56;2.13;;;2.03;;
75191;SDS011;63771;52.580;9.734;2023-07-29T03:44:22;2.08;;;1.98;;
75191;SDS011;63771;52.580;9.734;2023-07-29T03:46:47;2.27;;;2.17;;
75191;SDS011;63771;52.580;9.734;2023-07-29T03:49:12;2.47;;;2.33;;
75191;SDS011;63771;52.580;9.734;2023-07-29T03:51:38;2.75;;;2.28;;
75191;SDS011;63771;52.580;9.734;2023-07-29T03:54:03;2.83;;;2.30;;
75191;SDS011;63771;52.580;9.734;2023-07-29T03:56:28;3.13;;;2.57;;
75191;SDS011;63771;52.580;9.734;2023-07-29T03:58:56;2.65;;;2.45;;
75191;SDS011;63771;52.580;9.734;2023-07-29T04:01:28;2.45;;;2.35;;
75191;SDS011;63771;52.580;9.734;2023-07-29T04:03:53;3.67;;;2.15;;
75191;SDS011;63771;52.580;9.734;2023-07-29T04:06:19;2.95;;;2.38;;
75191;SDS011;63771;52.580;9.734;2023-07-29T04:08:45;2.50;;;2.30;;
75191;SDS011;63771;52.580;9.734;2023-07-29T04:11:10;2.30;;;2.10;;
75191;SDS011;63771;52.580;9.734;2023-07-29T04:13:35;2.33;;;2.23;;
75191;SDS011;63771;52.580;9.734;2023-07-29T04:16:02;2.75;;;2.40;;
75191;SDS011;63771;52.580;9.734;2023-07-29T04:18:28;2.72;;;2.53;;
75191;SDS011;63771;52.580;9.734;2023-07-29T04:20:53;2.80;;;2.60;;
75191;SDS011;63771;52.580;9.734;2023-07-29T04:23:19;2.40;;;2.20;;
75191;SDS011;63771;52.580;9.734;2023-07-29T04:25:44;3.57;;;2.60;;
75191;SDS011;63771;52.580;9.734;2023-07-29T04:28:09;2.30;;;2.10;;
75191;SDS011;63771;52.580;9.734;2023-07-29T04:30:35;3.07;;;2.50;;
75191;SDS011;63771;52.580;9.734;2023-07-29T04:33:00;2.40;;;2.20;;
75191;SDS011;63771;52.580;9.734;2023-07-29T04:35:25;2.37;;;2.00;;
75191;SDS011;63771;52.580;9.734;2023-07-29T04:37:51;2.28;;;2.17;;
75191;SDS011;63771;52.580;9.734;2023-07-29T04:40:16;3.10;;;2.37;;
75191;SDS011;63771;52.580;9.734;2023-07-29T04:42:41;2.63;;;2.43;;
75191;SDS011;63771;52.580;9.734;2023-07-29T04:45:07;2.27;;;2.17;;
75191;SDS011;63771;52.580;9.734;2023-07-29T04:47:32;2.50;;;2.33;;
75191;SDS011;63771;52.580;9.734;2023-07-29T04:49:57;2.38;;;2.20;;
75191;SDS011;63771;52.580;9.734;2023-07-29T04:52:23;2.00;;;1.90;;
75191;SDS011;63771;52.580;9.734;2023-07-29T04:54:48;2.63;;;2.45;;
75191;SDS011;63771;52.580;9.734;2023-07-29T04:57:13;2.03;;;1.90;;
75191;SDS011;63771;52.580;9.734;2023-07-29T04:59:39;2.17;;;2.07;;
75191;SDS011;63771;52.580;9.734;2023-07-29T05:02:04;2.23;;;2.03;;
75191;SDS011;63771;52.580;9.734;2023-07-29T05:04:30;2.28;;;2.17;;
75191;SDS011;63771;52.580;9.734;2023-07-29T05:06:55;3.23;;;2.10;;
75191;SDS011;63771;52.580;9.734;2023-07-29T05:09:20;2.63;;;2.43;;
75191;SDS011;63771;52.580;9.734;2023-07-29T05:11:46;4.50;;;2.60;;
75191;SDS011;63771;52.580;9.734;2023-07-29T05:14:15;2.25;;;2.15;;
75191;SDS011;63771;52.580;9.734;2023-07-29T05:16:42;2.78;;;2.45;;
75191;SDS011;63771;52.580;9.734;2023-07-29T05:19:07;2.30;;;2.20;;
75191;SDS011;63771;52.580;9.734;2023-07-29T05:21:33;2.38;;;2.28;;
75191;SDS011;63771;52.580;9.734;2023-07-29T05:23:58;2.30;;;2.20;;
75191;SDS011;63771;52.580;9.734;2023-07-29T05:26:24;2.10;;;1.90;;
75191;SDS011;63771;52.580;9.734;2023-07-29T05:28:49;2.03;;;1.92;;
75191;SDS011;63771;52.580;9.734;2023-07-29T05:31:14;3.70;;;2.00;;
75191;SDS011;63771;52.580;9.734;2023-07-29T05:33:40;2.43;;;2.17;;
75191;SDS011;63771;52.580;9.734;2023-07-29T05:36:05;4.53;;;2.13;;
75191;SDS011;63771;52.580;9.734;2023-07-29T05:38:31;1.98;;;1.88;;
75191;SDS011;63771;52.580;9.734;2023-07-29T05:40:56;2.10;;;2.00;;
75191;SDS011;63771;52.580;9.734;2023-07-29T05:43:24;2.03;;;1.90;;
75191;SDS011;63771;52.580;9.734;2023-07-29T05:48:15;2.00;;;1.90;;
75191;SDS011;63771;52.580;9.734;2023-07-29T05:50:41;2.25;;;2.05;;
75191;SDS011;63771;52.580;9.734;2023-07-29T05:53:07;5.57;;;2.10;;
75191;SDS011;63771;52.580;9.734;2023-07-29T05:55:32;2.83;;;2.00;;
75191;SDS011;63771;52.580;9.734;2023-07-29T05:57:58;4.43;;;2.00;;
75191;SDS011;63771;52.580;9.734;2023-07-29T06:00:23;2.23;;;2.10;;
75191;SDS011;63771;52.580;9.734;2023-07-29T06:02:48;2.30;;;2.10;;
75191;SDS011;63771;52.580;9.734;2023-07-29T06:05:14;2.70;;;2.50;;
75191;SDS011;63771;52.580;9.734;2023-07-29T06:07:39;2.00;;;1.90;;
75191;SDS011;63771;52.580;9.734;2023-07-29T06:10:09;2.53;;;1.98;;
75191;SDS011;63771;52.580;9.734;2023-07-29T06:15:01;1.73;;;1.63;;
75191;SDS011;63771;52.580;9.734;2023-07-29T06:17:27;3.47;;;2.10;;
75191;SDS011;63771;52.580;9.734;2023-07-29T06:19:52;2.65;;;2.45;;
75191;SDS011;63771;52.580;9.734;2023-07-29T06:22:18;2.72;;;2.30;;
75191;SDS011;63771;52.580;9.734;2023-07-29T06:24:43;2.50;;;2.17;;
75191;SDS011;63771;52.580;9.734;2023-07-29T06:27:08;2.20;;;2.10;;
75191;SDS011;63771;52.580;9.734;2023-07-29T06:29:34;2.03;;;1.83;;
75191;SDS011;63771;52.580;9.734;2023-07-29T06:31:59;2.10;;;2.00;;
75191;SDS011;63771;52.580;9.734;2023-07-29T06:34:24;2.17;;;2.07;;
75191;SDS011;63771;52.580;9.734;2023-07-29T06:36:49;2.60;;;2.38;;
75191;SDS011;63771;52.580;9.734;2023-07-29T06:39:15;3.77;;;2.60;;
75191;SDS011;63771;52.580;9.734;2023-07-29T06:41:40;2.17;;;2.00;;
75191;SDS011;63771;52.580;9.734;2023-07-29T06:44:05;2.00;;;1.90;;
75191;SDS011;63771;52.580;9.734;2023-07-29T06:46:31;2.13;;;2.03;;
75191;SDS011;63771;52.580;9.734;2023-07-29T06:48:56;2.30;;;2.10;;
75191;SDS011;63771;52.580;9.734;2023-07-29T06:51:22;2.10;;;2.00;;
75191;SDS011;63771;52.580;9.734;2023-07-29T06:53:47;4.15;;;2.20;;
75191;SDS011;63771;52.580;9.734;2023-07-29T06:56:12;2.20;;;2.10;;
75191;SDS011;63771;52.580;9.734;2023-07-29T06:58:38;3.20;;;2.08;;
75191;SDS011;63771;52.580;9.734;2023-07-29T07:01:03;1.97;;;1.87;;
75191;SDS011;63771;52.580;9.734;2023-07-29T07:03:28;2.17;;;1.97;;
75191;SDS011;63771;52.580;9.734;2023-07-29T07:05:54;2.30;;;2.03;;
75191;SDS011;63771;52.580;9.734;2023-07-29T07:08:19;2.30;;;2.10;;
75191;SDS011;63771;52.580;9.734;2023-07-29T07:10:46;2.30;;;2.10;;
75191;SDS011;63771;52.580;9.734;2023-07-29T07:13:11;2.83;;;2.63;;
75191;SDS011;63771;52.580;9.734;2023-07-29T07:15:37;2.23;;;2.13;;
75191;SDS011;63771;52.580;9.734;2023-07-29T07:18:02;2.73;;;2.33;;
75191;SDS011;63771;52.580;9.734;2023-07-29T07:20:28;2.08;;;1.92;;
75191;SDS011;63771;52.580;9.734;2023-07-29T07:22:54;2.20;;;2.10;;
75191;SDS011;63771;52.580;9.734;2023-07-29T07:25:19;1.87;;;1.77;;
75191;SDS011;63771;52.580;9.734;2023-07-29T07:27:44;2.00;;;1.90;;
75191;SDS011;63771;52.580;9.734;2023-07-29T07:30:10;2.60;;;1.90;;
75191;SDS011;63771;52.580;9.734;2023-07-29T07:32:35;2.55;;;2.35;;
75191;SDS011;63771;52.580;9.734;2023-07-29T07:35:01;2.55;;;2.05;;
75191;SDS011;63771;52.580;9.734;2023-07-29T07:37:26;2.13;;;2.03;;
75191;SDS011;63771;52.580;9.734;2023-07-29T07:39:52;2.53;;;2.43;;
75191;SDS011;63771;52.580;9.734;2023-07-29T07:42:17;3.53;;;1.87;;
75191;SDS011;63771;52.580;9.734;2023-07-29T07:44:43;2.13;;;2.03;;
75191;SDS011;63771;52.580;9.734;2023-07-29T07:47:08;2.00;;;1.90;;
75191;SDS011;63771;52.580;9.734;2023-07-29T07:49:33;2.33;;;2.00;;
75191;SDS011;63771;52.580;9.734;2023-07-29T07:51:59;2.37;;;2.03;;
75191;SDS011;63771;52.580;9.734;2023-07-29T07:54:24;2.33;;;2.20;;
75191;SDS011;63771;52.580;9.734;2023-07-29T07:56:49;2.03;;;1.93;;
75191;SDS011;63771;52.580;9.734;2023-07-29T07:59:14;2.60;;;2.00;;
75191;SDS011;63771;52.580;9.734;2023-07-29T08:01:40;3.97;;;2.43;;
75191;SDS011;63771;52.580;9.734;2023-07-29T08:04:05;2.47;;;2.38;;
75191;SDS011;63771;52.580;9.734;2023-07-29T08:06:31;2.63;;;2.47;;
75191;SDS011;63771;52.580;9.734;2023-07-29T08:08:57;2.88;;;2.67;;
75191;SDS011;63771;52.580;9.734;2023-07-29T08:11:23;2.90;;;2.70;;
75191;SDS011;63771;52.580;9.734;2023-07-29T08:13:49;3.00;;;2.80;;
75191;SDS011;63771;52.580;9.734;2023-07-29T08:16:14;2.88;;;2.58;;
75191;SDS011;63771;52.580;9.734;2023-07-29T08:18:40;2.85;;;2.65;;
75191;SDS011;63771;52.580;9.734;2023-07-29T08:21:05;3.20;;;3.00;;
75191;SDS011;63771;52.580;9.734;2023-07-29T08:23:31;3.08;;;2.92;;
75191;SDS011;63771;52.580;9.734;2023-07-29T08:25:58;3.08;;;2.88;;
75191;SDS011;63771;52.580;9.734;2023-07-29T08:28:29;3.33;;;3.13;;
75191;SDS011;63771;52.580;9.734;2023-07-29T08:33:22;3.40;;;3.00;;
75191;SDS011;63771;52.580;9.734;2023-07-29T08:35:47;4.07;;;3.70;;
75191;SDS011;63771;52.580;9.734;2023-07-29T08:38:12;3.50;;;3.20;;
75191;SDS011;63771;52.580;9.734;2023-07-29T08:40:41;3.58;;;3.25;;
75191;SDS011;63771;52.580;9.734;2023-07-29T08:43:10;3.97;;;3.67;;
75191;SDS011;63771;52.580;9.734;2023-07-29T08:45:39;4.10;;;3.80;;
75191;SDS011;63771;52.580;9.734;2023-07-29T08:48:07;3.80;;;3.13;;
75191;SDS011;63771;52.580;9.734;2023-07-29T08:50:35;3.97;;;3.63;;
75191;SDS011;63771;52.580;9.734;2023-07-29T08:53:03;3.60;;;3.38;;
75191;SDS011;63771;52.580;9.734;2023-07-29T08:55:29;4.57;;;3.47;;
75191;SDS011;63771;52.580;9.734;2023-07-29T08:57:55;3.50;;;3.30;;
75191;SDS011;63771;52.580;9.734;2023-07-29T09:00:22;3.42;;;3.13;;
75191;SDS011;63771;52.580;9.734;2023-07-29T09:02:47;3.92;;;3.65;;
75191;SDS011;63771;52.580;9.734;2023-07-29T09:05:13;3.87;;;3.57;;
75191;SDS011;63771;52.580;9.734;2023-07-29T09:07:38;4.55;;;4.22;;
75191;SDS011;63771;52.580;9.734;2023-07-29T09:10:07;4.43;;;4.03;;
75191;SDS011;63771;52.580;9.734;2023-07-29T09:12:35;4.93;;;4.40;;
75191;SDS011;63771;52.580;9.734;2023-07-29T09:15:00;4.90;;;4.50;;
75191;SDS011;63771;52.580;9.734;2023-07-29T09:17:26;6.50;;;4.77;;
75191;SDS011;63771;52.580;9.734;2023-07-29T09:19:51;4.63;;;4.20;;
75191;SDS011;63771;52.580;9.734;2023-07-29T09:22:17;5.18;;;4.20;;
75191;SDS011;63771;52.580;9.734;2023-07-29T09:24:43;4.22;;;3.83;;
75191;SDS011;63771;52.580;9.734;2023-07-29T09:27:10;5.35;;;4.32;;
75191;SDS011;63771;52.580;9.734;2023-07-29T09:29:47;6.40;;;4.22;;
75191;SDS011;63771;52.580;9.734;2023-07-29T09:32:20;4.70;;;4.30;;
75191;SDS011;63771;52.580;9.734;2023-07-29T09:34:46;4.63;;;4.22;;
75191;SDS011;63771;52.580;9.734;2023-07-29T09:37:18;4.18;;;3.88;;
75191;SDS011;63771;52.580;9.734;2023-07-29T09:39:46;5.07;;;4.57;;
75191;SDS011;63771;52.580;9.734;2023-07-29T09:42:18;5.32;;;4.80;;
75191;SDS011;63771;52.580;9.734;2023-07-29T09:44:45;4.50;;;4.05;;
75191;SDS011;63771;52.580;9.734;2023-07-29T09:47:25;6.32;;;5.43;;
75191;SDS011;63771;52.580;9.734;2023-07-29T09:49:51;5.75;;;5.25;;
75191;SDS011;63771;52.580;9.734;2023-07-29T09:52:18;6.32;;;5.55;;
75191;SDS011;63771;52.580;9.734;2023-07-29T09:54:44;7.03;;;6.32;;
75191;SDS011;63771;52.580;9.734;2023-07-29T09:57:12;12.85;;;5.78;;
75191;SDS011;63771;52.580;9.734;2023-07-29T09:59:39;8.35;;;5.88;;
75191;SDS011;63771;52.580;9.734;2023-07-29T10:02:04;5.70;;;3.60;;
75191;SDS011;63771;52.580;9.734;2023-07-29T10:04:38;4.95;;;4.32;;
75191;SDS011;63771;52.580;9.734;2023-07-29T10:07:03;8.82;;;3.92;;
75191;SDS011;63771;52.580;9.734;2023-07-29T10:09:29;4.53;;;4.00;;
75191;SDS011;63771;52.580;9.734;2023-07-29T10:11:56;5.22;;;4.72;;
75191;SDS011;63771;52.580;9.734;2023-07-29T10:14:22;5.93;;;4.97;;
75191;SDS011;63771;52.580;9.734;2023-07-29T10:16:48;8.07;;;5.65;;
75191;SDS011;63771;52.580;9.734;2023-07-29T10:19:14;6.72;;;5.25;;
75191;SDS011;63771;52.580;9.734;2023-07-29T10:21:41;6.20;;;5.57;;
75191;SDS011;63771;52.580;9.734;2023-07-29T10:24:11;5.80;;;5.22;;
75191;SDS011;63771;52.580;9.734;2023-07-29T10:26:41;7.35;;;4.93;;
75191;SDS011;63771;52.580;9.734;2023-07-29T10:29:11;6.20;;;5.60;;
75191;SDS011;63771;52.580;9.734;2023-07-29T10:31:38;6.32;;;5.45;;
75191;SDS011;63771;52.580;9.734;2023-07-29T10:34:05;6.97;;;5.78;;
75191;SDS011;63771;52.580;9.734;2023-07-29T10:36:31;5.82;;;5.07;;
75191;SDS011;63771;52.580;9.734;2023-07-29T10:38:57;4.95;;;4.65;;
75191;SDS011;63771;52.580;9.734;2023-07-29T10:41:22;3.70;;;3.50;;
75191;SDS011;63771;52.580;9.734;2023-07-29T10:43:48;4.07;;;3.78;;
75191;SDS011;63771;52.580;9.734;2023-07-29T10:46:17;3.93;;;3.63;;
75191;SDS011;63771;52.580;9.734;2023-07-29T10:48:51;3.40;;;3.20;;
75191;SDS011;63771;52.580;9.734;2023-07-29T10:53:54;4.70;;;3.05;;
75191;SDS011;63771;52.580;9.734;2023-07-29T10:56:26;4.43;;;3.92;;
75191;SDS011;63771;52.580;9.734;2023-07-29T10:58:56;4.18;;;3.78;;
75191;SDS011;63771;52.580;9.734;2023-07-29T11:01:51;3.85;;;3.47;;
75191;SDS011;63771;52.580;9.734;2023-07-29T11:04:21;4.00;;;3.60;;
75191;SDS011;63771;52.580;9.734;2023-07-29T11:09:45;3.60;;;3.30;;
75191;SDS011;63771;52.580;9.734;2023-07-29T11:17:35;3.17;;;2.90;;
75191;SDS011;63771;52.580;9.734;2023-07-29T11:20:12;3.35;;;3.05;;
75191;SDS011;63771;52.580;9.734;2023-07-29T11:22:39;3.20;;;3.00;;
75191;SDS011;63771;52.580;9.734;2023-07-29T11:25:05;3.25;;;3.05;;
75191;SDS011;63771;52.580;9.734;2023-07-29T11:27:32;3.10;;;2.90;;
75191;SDS011;63771;52.580;9.734;2023-07-29T11:30:01;3.90;;;2.70;;
75191;SDS011;63771;52.580;9.734;2023-07-29T11:32:30;3.15;;;2.38;;
75191;SDS011;63771;52.580;9.734;2023-07-29T11:34:56;1.83;;;1.70;;
75191;SDS011;63771;52.580;9.734;2023-07-29T11:37:22;2.33;;;1.77;;
75191;SDS011;63771;52.580;9.734;2023-07-29T11:39:47;3.03;;;2.00;;
75191;SDS011;63771;52.580;9.734;2023-07-29T11:42:13;1.55;;;1.55;;
75191;SDS011;63771;52.580;9.734;2023-07-29T11:44:39;1.80;;;1.48;;
75191;SDS011;63771;52.580;9.734;2023-07-29T11:47:08;1.40;;;1.40;;
75191;SDS011;63771;52.580;9.734;2023-07-29T11:49:34;1.30;;;1.30;;
75191;SDS011;63771;52.580;9.734;2023-07-29T11:52:00;2.25;;;1.52;;
75191;SDS011;63771;52.580;9.734;2023-07-29T11:54:27;1.30;;;1.20;;
75191;SDS011;63771;52.580;9.734;2023-07-29T11:56:52;1.08;;;1.08;;
75191;SDS011;63771;52.580;9.734;2023-07-29T11:59:18;1.40;;;1.30;;
75191;SDS011;63771;52.580;9.734;2023-07-29T12:01:44;1.10;;;0.90;;
75191;SDS011;63771;52.580;9.734;2023-07-29T12:04:10;1.67;;;1.27;;
75191;SDS011;63771;52.580;9.734;2023-07-29T12:06:36;1.15;;;1.05;;
75191;SDS011;63771;52.580;9.734;2023-07-29T12:09:02;1.20;;;1.20;;
75191;SDS011;63771;52.580;9.734;2023-07-29T12:11:28;1.25;;;1.25;;
75191;SDS011;63771;52.580;9.734;2023-07-29T12:13:53;1.27;;;1.13;;
75191;SDS011;63771;52.580;9.734;2023-07-29T12:16:19;1.67;;;1.58;;
75191;SDS011;63771;52.580;9.734;2023-07-29T12:18:44;1.35;;;0.93;;
75191;SDS011;63771;52.580;9.734;2023-07-29T12:21:10;1.33;;;1.23;;
75191;SDS011;63771;52.580;9.734;2023-07-29T12:23:35;0.73;;;0.73;;
75191;SDS011;63771;52.580;9.734;2023-07-29T12:26:01;0.90;;;0.90;;
75191;SDS011;63771;52.580;9.734;2023-07-29T12:28:26;1.10;;;1.10;;
75191;SDS011;63771;52.580;9.734;2023-07-29T12:30:55;1.15;;;1.15;;
75191;SDS011;63771;52.580;9.734;2023-07-29T12:33:30;1.45;;;1.25;;
75191;SDS011;63771;52.580;9.734;2023-07-29T12:36:01;0.70;;;0.70;;
75191;SDS011;63771;52.580;9.734;2023-07-29T12:38:26;1.35;;;1.00;;
75191;SDS011;63771;52.580;9.734;2023-07-29T12:40:52;1.33;;;1.20;;
75191;SDS011;63771;52.580;9.734;2023-07-29T12:43:18;1.10;;;1.10;;
75191;SDS011;63771;52.580;9.734;2023-07-29T12:45:43;1.17;;;1.10;;
75191;SDS011;63771;52.580;9.734;2023-07-29T12:48:09;2.20;;;0.88;;
75191;SDS011;63771;52.580;9.734;2023-07-29T12:50:35;1.00;;;1.00;;
75191;SDS011;63771;52.580;9.734;2023-07-29T12:53:01;0.73;;;0.73;;
75191;SDS011;63771;52.580;9.734;2023-07-29T12:55:26;0.98;;;0.98;;
75191;SDS011;63771;52.580;9.734;2023-07-29T12:57:52;1.33;;;1.10;;
75191;SDS011;63771;52.580;9.734;2023-07-29T13:00:17;1.00;;;1.00;;
75191;SDS011;63771;52.580;9.734;2023-07-29T13:02:43;1.20;;;1.20;;
75191;SDS011;63771;52.580;9.734;2023-07-29T13:05:09;1.00;;;0.95;;
75191;SDS011;63771;52.580;9.734;2023-07-29T13:10:01;1.10;;;1.10;;
75191;SDS011;63771;52.580;9.734;2023-07-29T13:12:27;1.42;;;0.93;;
75191;SDS011;63771;52.580;9.734;2023-07-29T13:14:52;1.00;;;1.00;;
75191;SDS011;63771;52.580;9.734;2023-07-29T13:17:17;0.90;;;0.90;;
75191;SDS011;63771;52.580;9.734;2023-07-29T13:19:43;1.30;;;1.30;;
75191;SDS011;63771;52.580;9.734;2023-07-29T13:22:08;1.83;;;1.17;;
75191;SDS011;63771;52.580;9.734;2023-07-29T13:24:33;1.53;;;1.10;;
75191;SDS011;63771;52.580;9.734;2023-07-29T13:26:59;1.10;;;1.10;;
75191;SDS011;63771;52.580;9.734;2023-07-29T13:29:24;1.10;;;1.10;;
75191;SDS011;63771;52.580;9.734;2023-07-29T13:31:49;1.00;;;1.00;;
75191;SDS011;63771;52.580;9.734;2023-07-29T13:34:15;1.27;;;1.17;;
75191;SDS011;63771;52.580;9.734;2023-07-29T13:36:40;0.90;;;0.90;;
75191;SDS011;63771;52.580;9.734;2023-07-29T13:39:05;2.70;;;1.47;;
75191;SDS011;63771;52.580;9.734;2023-07-29T13:41:31;2.63;;;1.33;;
75191;SDS011;63771;52.580;9.734;2023-07-29T13:43:57;1.97;;;1.17;;
75191;SDS011;63771;52.580;9.734;2023-07-29T13:46:22;1.13;;;1.13;;
75191;SDS011;63771;52.580;9.734;2023-07-29T13:48:47;1.17;;;1.13;;
75191;SDS011;63771;52.580;9.734;2023-07-29T13:51:13;1.23;;;1.13;;
75191;SDS011;63771;52.580;9.734;2023-07-29T13:53:38;1.03;;;1.00;;
75191;SDS011;63771;52.580;9.734;2023-07-29T13:56:04;1.00;;;1.00;;
75191;SDS011;63771;52.580;9.734;2023-07-29T13:58:29;1.10;;;1.10;;
75191;SDS011;63771;52.580;9.734;2023-07-29T14:00:55;0.93;;;0.93;;
75191;SDS011;63771;52.580;9.734;2023-07-29T14:03:20;1.47;;;1.30;;
75191;SDS011;63771;52.580;9.734;2023-07-29T14:05:45;0.88;;;0.85;;
75191;SDS011;63771;52.580;9.734;2023-07-29T14:08:11;1.40;;;1.30;;
75191;SDS011;63771;52.580;9.734;2023-07-29T14:10:36;1.10;;;1.10;;
75191;SDS011;63771;52.580;9.734;2023-07-29T14:13:01;0.90;;;0.90;;
75191;SDS011;63771;52.580;9.734;2023-07-29T14:15:27;0.90;;;0.90;;
75191;SDS011;63771;52.580;9.734;2023-07-29T14:17:53;1.02;;;1.02;;
75191;SDS011;63771;52.580;9.734;2023-07-29T14:20:18;1.08;;;1.00;;
75191;SDS011;63771;52.580;9.734;2023-07-29T14:22:44;1.92;;;1.17;;
75191;SDS011;63771;52.580;9.734;2023-07-29T14:25:09;0.90;;;0.90;;
75191;SDS011;63771;52.580;9.734;2023-07-29T14:27:35;0.90;;;0.90;;
75191;SDS011;63771;52.580;9.734;2023-07-29T14:30:01;1.10;;;1.00;;
75191;SDS011;63771;52.580;9.734;2023-07-29T14:32:27;1.10;;;1.00;;
75191;SDS011;63771;52.580;9.734;2023-07-29T14:34:52;0.90;;;0.90;;
75191;SDS011;63771;52.580;9.734;2023-07-29T14:37:17;0.90;;;0.90;;
75191;SDS011;63771;52.580;9.734;2023-07-29T14:39:43;1.03;;;1.03;;
75191;SDS011;63771;52.580;9.734;2023-07-29T14:42:08;1.38;;;0.98;;
75191;SDS011;63771;52.580;9.734;2023-07-29T14:44:33;1.00;;;1.00;;
75191;SDS011;63771;52.580;9.734;2023-07-29T14:46:59;0.90;;;0.90;;
75191;SDS011;63771;52.580;9.734;2023-07-29T14:49:24;1.00;;;1.00;;
75191;SDS011;63771;52.580;9.734;2023-07-29T14:51:49;0.87;;;0.87;;
75191;SDS011;63771;52.580;9.734;2023-07-29T14:54:14;1.25;;;1.20;;
75191;SDS011;63771;52.580;9.734;2023-07-29T14:56:40;0.98;;;0.98;;
75191;SDS011;63771;52.580;9.734;2023-07-29T14:59:05;1.37;;;1.00;;
75191;SDS011;63771;52.580;9.734;2023-07-29T15:01:30;0.90;;;0.90;;
75191;SDS011;63771;52.580;9.734;2023-07-29T15:03:56;0.98;;;0.98;;
75191;SDS011;63771;52.580;9.734;2023-07-29T15:06:22;0.95;;;0.95;;
75191;SDS011;63771;52.580;9.734;2023-07-29T15:08:47;1.00;;;1.00;;
75191;SDS011;63771;52.580;9.734;2023-07-29T15:11:12;1.00;;;1.00;;